Time;durP1;ratioP1;P1;durP2;ratioP2;P2;SDS_P1;SDS_P2;PMS_P1;PMS_P2;Temp;Humidity;BMP_temperature;BMP_pressure;BME280_temperature;BME280_humidity;BME280_pressure;Samples;Min_cycle;Max_cycle;Signal;HPM_P1;HPM_P2
2024/05/05 00:00:16;;;;;;;9.45;7.60;;;;;;;10.46;53.31;100838.63;5335436;26;20012;-66
2024/05/05 00:02:42;;;;;;;13.95;7.82;;;;;;;10.47;53.23;100832.47;5361895;26;20007;-66
2024/05/05 00:05:07;;;;;;;9.88;7.60;;;;;;;10.46;52.98;100828.16;5355641;26;20041;-68
2024/05/05 00:07:33;;;;;;;12.15;7.95;;;;;;;10.54;53.35;100820.00;5354229;26;19996;-67
2024/05/05 00:09:58;;;;;;;9.27;7.82;;;;;;;10.59;52.96;100813.69;5360219;26;20020;-66
2024/05/05 00:12:24;;;;;;;14.68;9.02;;;;;;;10.56;53.05;100811.19;5353418;26;20058;-66
2024/05/05 00:14:50;;;;;;;9.27;8.07;;;;;;;10.66;53.02;100813.41;5355806;26;20007;-67
2024/05/05 00:17:15;;;;;;;12.45;9.70;;;;;;;10.64;53.27;100813.50;5357662;26;20036;-67
2024/05/05 00:19:41;;;;;;;13.32;9.82;;;;;;;10.69;53.30;100808.09;5358409;26;20092;-67
2024/05/05 00:22:06;;;;;;;10.68;9.00;;;;;;;10.74;53.46;100798.28;5359179;26;20047;-67
2024/05/05 00:24:31;;;;;;;9.52;8.10;;;;;;;10.75;53.69;100799.97;5321434;26;20000;-67
2024/05/05 00:26:57;;;;;;;12.05;9.40;;;;;;;10.71;53.40;100795.81;5351792;26;20085;-67
2024/05/05 00:29:25;;;;;;;11.73;10.15;;;;;;;10.73;53.78;100789.59;5346238;26;20555;-67
2024/05/05 00:31:51;;;;;;;13.75;10.07;;;;;;;10.70;54.10;100794.09;5361397;26;20368;-68
2024/05/05 00:34:16;;;;;;;14.27;10.57;;;;;;;10.76;53.78;100784.22;5356621;26;20004;-68
2024/05/05 00:36:42;;;;;;;12.25;9.15;;;;;;;10.76;54.01;100786.84;5363645;26;20004;-67
2024/05/05 00:39:08;;;;;;;16.35;11.05;;;;;;;10.76;54.17;100783.38;5356701;26;20085;-69
2024/05/05 00:41:34;;;;;;;13.27;11.15;;;;;;;10.79;54.32;100767.56;5340902;26;20855;-69
2024/05/05 00:43:59;;;;;;;14.20;11.18;;;;;;;10.82;54.59;100770.09;5364819;26;20141;-68
2024/05/05 00:46:25;;;;;;;16.38;11.98;;;;;;;10.84;54.37;100766.50;5350840;26;20563;-69
2024/05/05 00:48:50;;;;;;;15.38;12.63;;;;;;;10.72;54.95;100763.50;5364459;26;20643;-68
2024/05/05 00:51:17;;;;;;;13.85;12.40;;;;;;;10.69;55.02;100755.81;5358591;26;20434;-67
2024/05/05 00:53:43;;;;;;;18.17;13.50;;;;;;;10.58;55.39;100754.47;5364748;26;20643;-69
2024/05/05 00:56:09;;;;;;;16.25;12.30;;;;;;;10.59;55.93;100757.94;5358744;26;20073;-68
2024/05/05 00:58:36;;;;;;;20.45;14.25;;;;;;;10.57;55.96;100752.78;5356056;26;20003;-68
2024/05/05 01:01:01;;;;;;;16.90;14.52;;;;;;;10.45;56.54;100755.06;5362393;26;20012;-68
2024/05/05 01:03:28;;;;;;;16.00;13.27;;;;;;;10.41;56.86;100751.72;5351320;26;19999;-70
2024/05/05 01:05:53;;;;;;;20.48;14.30;;;;;;;10.36;57.39;100740.59;5356638;26;20016;-69
2024/05/05 01:08:20;;;;;;;15.90;13.32;;;;;;;10.37;57.20;100737.06;5313425;26;20018;-70
2024/05/05 01:10:46;;;;;;;17.98;11.93;;;;;;;10.15;57.76;100737.97;5357849;26;20485;-69
2024/05/05 01:13:13;;;;;;;16.98;10.50;;;;;;;10.13;57.69;100731.13;5353236;26;20014;-68
2024/05/05 01:15:38;;;;;;;16.20;11.38;;;;;;;10.11;57.54;100728.56;5364695;26;20011;-63
2024/05/05 01:18:04;;;;;;;14.38;10.77;;;;;;;10.06;57.75;100724.41;5322695;26;20019;-66
2024/05/05 01:20:30;;;;;;;14.70;10.25;;;;;;;9.99;58.04;100724.69;5357031;26;20057;-67
2024/05/05 01:22:55;;;;;;;19.92;10.30;;;;;;;9.98;58.13;100733.41;5361688;26;20424;-68
2024/05/05 01:25:21;;;;;;;16.83;10.85;;;;;;;10.08;58.01;100727.81;5357044;26;20003;-68
2024/05/05 01:27:46;;;;;;;18.95;10.07;;;;;;;10.01;58.31;100725.47;5354875;26;20014;-65
2024/05/05 01:30:13;;;;;;;13.18;9.77;;;;;;;10.00;58.42;100721.13;5358933;26;20020;-68
2024/05/05 01:32:38;;;;;;;12.02;9.70;;;;;;;9.96;58.77;100723.94;5344738;26;20030;-67
2024/05/05 01:35:04;;;;;;;15.40;10.75;;;;;;;9.95;58.99;100727.47;5360278;26;20155;-68
2024/05/05 01:37:29;;;;;;;13.38;10.73;;;;;;;9.88;59.00;100726.88;5315202;26;20461;-69
2024/05/05 01:39:55;;;;;;;15.18;11.02;;;;;;;9.84;59.33;100719.22;5360377;26;20003;-67
2024/05/05 01:42:23;;;;;;;14.80;11.27;;;;;;;10.02;58.98;100723.69;5353525;26;20071;-67
2024/05/05 01:44:48;;;;;;;15.60;11.02;;;;;;;10.10;58.96;100724.25;5359003;26;20011;-67
2024/05/05 01:47:14;;;;;;;17.27;11.85;;;;;;;10.15;58.87;100729.28;5350274;26;20014;-68
2024/05/05 01:49:39;;;;;;;17.88;11.43;;;;;;;10.17;58.78;100722.25;5358295;26;20072;-67
2024/05/05 01:52:05;;;;;;;15.07;11.65;;;;;;;10.20;58.81;100717.72;5350741;26;20014;-68
2024/05/05 01:54:30;;;;;;;16.55;10.68;;;;;;;10.20;59.03;100719.50;5308536;26;20011;-68
2024/05/05 01:56:57;;;;;;;20.00;11.60;;;;;;;10.26;58.62;100715.75;5363640;26;20032;-66
2024/05/05 01:59:22;;;;;;;17.42;12.48;;;;;;;10.26;58.82;100714.03;5353241;26;20043;-66
2024/05/05 02:01:48;;;;;;;17.50;12.35;;;;;;;10.24;58.70;100712.41;5349502;26;22442;-66
2024/05/05 02:04:13;;;;;;;16.33;12.07;;;;;;;10.29;58.61;100705.22;5363580;26;20008;-66
2024/05/05 02:06:39;;;;;;;14.43;11.45;;;;;;;10.30;58.33;100696.44;5354070;26;20003;-66
2024/05/05 02:09:04;;;;;;;14.52;10.20;;;;;;;10.32;58.39;100681.56;5366564;26;20700;-66
2024/05/05 02:11:29;;;;;;;17.80;12.52;;;;;;;10.28;58.45;100687.81;5353968;26;20069;-66
2024/05/05 02:13:55;;;;;;;14.85;11.18;;;;;;;10.25;58.73;100685.34;5338404;26;20019;-66
2024/05/05 02:16:21;;;;;;;17.15;10.95;;;;;;;10.23;58.74;100680.19;5359304;26;20003;-66
2024/05/05 02:18:46;;;;;;;14.70;10.93;;;;;;;10.19;58.65;100678.59;5355738;26;20011;-67
2024/05/05 02:21:12;;;;;;;14.30;11.73;;;;;;;10.22;58.66;100671.50;5352255;26;20075;-67
2024/05/05 02:23:38;;;;;;;18.98;13.70;;;;;;;10.19;58.52;100661.19;5322463;26;20006;-67
2024/05/05 02:26:03;;;;;;;18.60;12.38;;;;;;;10.13;59.08;100666.66;5336874;26;20018;-65
2024/05/05 02:28:29;;;;;;;22.88;13.52;;;;;;;10.06;58.96;100662.63;5349798;26;20432;-67
2024/05/05 02:30:54;;;;;;;17.40;12.15;;;;;;;10.06;59.48;100646.06;5359699;26;20007;-66
2024/05/05 02:33:20;;;;;;;20.08;12.85;;;;;;;10.05;59.29;100640.00;5352832;26;20017;-67
2024/05/05 02:35:45;;;;;;;20.17;13.35;;;;;;;10.03;59.69;100631.38;5360837;26;20418;-65
2024/05/05 02:38:11;;;;;;;21.65;13.95;;;;;;;9.91;59.64;100622.31;5353360;26;20434;-66
2024/05/05 02:40:37;;;;;;;18.17;12.68;;;;;;;9.83;60.20;100623.53;5355707;26;21058;-67
2024/05/05 02:43:03;;;;;;;22.20;14.63;;;;;;;9.81;60.44;100605.31;5362147;26;20080;-67
2024/05/05 02:45:28;;;;;;;17.90;13.02;;;;;;;9.69;60.14;100606.63;5346400;26;20044;-66
2024/05/05 02:47:54;;;;;;;25.55;13.93;;;;;;;9.82;60.28;100606.19;5353930;26;21052;-68
2024/05/05 02:50:20;;;;;;;22.13;14.60;;;;;;;9.80;60.64;100599.25;5354313;26;20008;-67
2024/05/05 02:52:46;;;;;;;19.27;13.90;;;;;;;9.85;60.66;100608.66;5352254;26;20019;-69
2024/05/05 02:55:14;;;;;;;18.25;13.52;;;;;;;9.92;60.36;100599.66;5356254;26;20447;-69
2024/05/05 02:57:44;;;;;;;18.88;13.65;;;;;;;9.93;60.40;100606.59;5355082;26;20808;-68
2024/05/05 03:00:11;;;;;;;21.77;14.98;;;;;;;9.90;60.18;100593.66;5344234;26;20031;-69
2024/05/05 03:02:37;;;;;;;19.60;13.60;;;;;;;9.89;60.16;100579.75;5350531;26;20081;-66
2024/05/05 03:05:04;;;;;;;20.08;13.95;;;;;;;9.70;60.15;100579.66;5364887;26;20007;-68
2024/05/05 03:07:29;;;;;;;21.80;14.45;;;;;;;9.71;60.26;100564.84;5328824;26;20020;-68
2024/05/05 03:09:55;;;;;;;19.88;15.50;;;;;;;9.72;60.41;100566.50;5347877;26;20022;-67
2024/05/05 03:12:20;;;;;;;21.77;15.05;;;;;;;9.70;60.43;100556.16;5354378;26;20097;-69
2024/05/05 03:14:46;;;;;;;18.17;13.20;;;;;;;9.74;60.05;100552.47;5323090;26;20071;-68
2024/05/05 03:17:11;;;;;;;19.65;14.13;;;;;;;9.72;60.20;100556.06;5359412;26;20270;-66
2024/05/05 03:19:38;;;;;;;22.25;15.95;;;;;;;9.76;60.37;100555.88;5348668;26;20081;-67
2024/05/05 03:22:04;;;;;;;19.77;14.75;;;;;;;9.73;60.71;100552.56;5358656;26;20019;-67
2024/05/05 03:24:29;;;;;;;18.55;15.30;;;;;;;9.66;60.53;100541.53;5325379;26;20000;-67
2024/05/05 03:26:57;;;;;;;22.48;15.40;;;;;;;9.57;61.11;100540.16;5350263;26;20058;-70
2024/05/05 03:29:23;;;;;;;22.70;15.27;;;;;;;9.57;60.91;100536.69;5345790;26;20011;-71
2024/05/05 03:31:48;;;;;;;19.27;15.18;;;;;;;9.69;60.87;100527.50;5362318;26;20014;-72
2024/05/05 03:34:14;;;;;;;19.70;14.63;;;;;;;9.63;60.73;100527.75;5351588;26;20047;-71
2024/05/05 03:36:40;;;;;;;23.70;15.63;;;;;;;9.58;61.09;100525.34;5345762;26;20004;-67
2024/05/05 03:39:05;;;;;;;21.27;15.82;;;;;;;9.63;60.81;100523.38;5371242;26;20011;-68
2024/05/05 03:41:31;;;;;;;23.55;14.90;;;;;;;9.54;60.77;100529.84;5352539;26;20003;-68
2024/05/05 03:43:58;;;;;;;16.30;12.80;;;;;;;9.59;60.61;100527.91;5361635;26;20023;-68
2024/05/05 03:46:24;;;;;;;21.75;14.20;;;;;;;9.61;60.96;100520.00;5347739;26;20084;-67
2024/05/05 03:48:50;;;;;;;21.35;14.32;;;;;;;9.64;60.83;100530.31;5349723;26;20667;-68
2024/05/05 03:51:16;;;;;;;22.55;16.10;;;;;;;9.60;60.73;100518.31;5359374;26;20008;-69
2024/05/05 03:53:41;;;;;;;17.95;12.45;;;;;;;9.64;60.85;100516.44;5352971;26;20383;-69
2024/05/05 03:56:07;;;;;;;18.77;13.60;;;;;;;9.64;60.72;100511.19;5361598;26;20004;-67
2024/05/05 03:58:32;;;;;;;21.30;13.90;;;;;;;9.57;61.03;100519.28;5349662;26;20018;-68
2024/05/05 04:00:58;;;;;;;20.35;13.88;;;;;;;9.39;61.58;100518.28;5359870;26;20128;-69
2024/05/05 04:03:23;;;;;;;20.60;13.63;;;;;;;9.58;61.06;100513.13;5345786;26;20461;-67
2024/05/05 04:05:49;;;;;;;21.85;14.30;;;;;;;9.59;60.76;100509.63;5362126;26;20018;-68
2024/05/05 04:08:15;;;;;;;18.63;13.65;;;;;;;9.55;61.12;100509.81;5349826;26;20026;-67
2024/05/05 04:10:40;;;;;;;21.20;15.07;;;;;;;9.63;60.91;100509.50;5344983;26;20392;-69
2024/05/05 04:13:06;;;;;;;24.00;15.35;;;;;;;9.56;60.77;100508.91;5356019;26;20016;-68
2024/05/05 04:15:32;;;;;;;24.20;16.13;;;;;;;9.47;61.39;100493.63;5320603;26;20018;-69
2024/05/05 04:18:00;;;;;;;23.50;14.70;;;;;;;9.53;61.51;100507.28;5355471;26;20007;-68
2024/05/05 04:20:26;;;;;;;22.70;14.70;;;;;;;9.59;61.13;100506.19;5358869;26;20003;-68
2024/05/05 04:22:51;;;;;;;20.45;12.98;;;;;;;9.64;61.05;100504.22;5359438;26;20003;-69
2024/05/05 04:25:17;;;;;;;18.25;13.25;;;;;;;9.73;61.01;100496.00;5355108;26;22213;-67
2024/05/05 04:27:43;;;;;;;21.48;14.65;;;;;;;9.78;60.81;100501.03;5375944;26;20482;-68
2024/05/05 04:30:08;;;;;;;21.23;13.63;;;;;;;9.83;60.80;100496.47;5357633;26;20019;-68
2024/05/05 04:32:34;;;;;;;19.40;13.80;;;;;;;9.74;60.56;100505.50;5347418;26;20015;-69
2024/05/05 04:35:00;;;;;;;20.25;12.90;;;;;;;9.85;60.34;100506.84;5340806;26;20011;-69
2024/05/05 04:37:26;;;;;;;17.02;13.80;;;;;;;9.88;60.88;100501.50;5361297;26;20782;-67
2024/05/05 04:39:51;;;;;;;16.88;12.93;;;;;;;9.91;60.67;100498.78;5359799;26;20699;-66
2024/05/05 04:42:17;;;;;;;18.17;14.18;;;;;;;9.87;60.66;100505.03;5339792;26;20000;-68
2024/05/05 04:44:42;;;;;;;17.52;13.35;;;;;;;9.90;60.87;100499.66;5351688;26;20023;-67
2024/05/05 04:47:08;;;;;;;18.27;13.07;;;;;;;9.99;60.64;100505.38;5357715;26;20101;-67
2024/05/05 04:49:33;;;;;;;19.13;12.52;;;;;;;10.05;60.70;100499.00;5350229;26;20020;-69
2024/05/05 04:51:59;;;;;;;17.73;12.63;;;;;;;10.07;60.58;100502.41;5361032;26;20015;-68
2024/05/05 04:54:24;;;;;;;18.55;13.23;;;;;;;9.89;60.48;100506.66;5367826;26;20754;-67
2024/05/05 04:56:49;;;;;;;21.30;13.38;;;;;;;9.89;60.94;100503.22;5360901;26;20010;-68
2024/05/05 04:59:15;;;;;;;20.70;12.98;;;;;;;9.89;60.92;100498.81;5365583;26;20089;-68
2024/05/05 05:01:40;;;;;;;24.50;13.73;;;;;;;9.75;60.94;100502.00;5357769;26;20047;-67
2024/05/05 05:04:06;;;;;;;21.02;12.90;;;;;;;9.49;61.76;100499.63;5350892;26;20016;-66
2024/05/05 05:06:31;;;;;;;17.58;13.05;;;;;;;9.35;61.89;100501.03;5358681;26;20011;-68
2024/05/05 05:08:57;;;;;;;20.70;14.38;;;;;;;9.30;62.24;100505.63;5305042;26;20066;-66
2024/05/05 05:11:22;;;;;;;19.95;13.63;;;;;;;9.67;61.24;100505.84;5364945;26;20070;-65
2024/05/05 05:13:52;;;;;;;24.70;13.68;;;;;;;9.51;61.69;100505.63;5353613;26;20851;-66
2024/05/05 05:16:18;;;;;;;21.17;13.55;;;;;;;9.55;61.51;100502.00;5338137;26;20027;-65
2024/05/05 05:18:44;;;;;;;22.85;14.30;;;;;;;9.64;61.47;100504.22;5352061;26;20007;-65
2024/05/05 05:21:10;;;;;;;27.98;14.75;;;;;;;9.65;61.38;100507.66;5359409;26;20375;-66
2024/05/05 05:23:35;;;;;;;18.80;13.40;;;;;;;9.68;61.45;100495.34;5357382;26;20014;-65
2024/05/05 05:26:01;;;;;;;19.73;14.35;;;;;;;9.78;61.53;100504.47;5360098;26;20708;-67
2024/05/05 05:28:26;;;;;;;20.95;13.93;;;;;;;9.70;61.45;100509.19;5358124;26;20012;-67
2024/05/05 05:30:52;;;;;;;22.02;12.73;;;;;;;9.59;61.53;100504.41;5348914;26;20011;-68
2024/05/05 05:33:17;;;;;;;20.38;12.60;;;;;;;9.27;62.45;100497.06;5361745;26;20007;-67
2024/05/05 05:35:43;;;;;;;23.55;12.52;;;;;;;9.32;62.50;100498.56;5324486;26;20101;-68
2024/05/05 05:38:08;;;;;;;18.73;13.73;;;;;;;9.67;61.69;100491.03;5358267;26;20778;-70
2024/05/05 05:40:34;;;;;;;18.50;12.20;;;;;;;9.63;61.61;100491.22;5355579;26;20399;-69
2024/05/05 05:42:59;;;;;;;17.50;12.27;;;;;;;9.93;61.11;100489.94;5354088;26;20566;-69
2024/05/05 05:45:25;;;;;;;15.75;11.18;;;;;;;9.99;60.48;100488.81;5362311;26;20003;-69
2024/05/05 05:47:50;;;;;;;20.13;11.88;;;;;;;10.02;60.13;100486.09;5355443;26;21731;-70
2024/05/05 05:50:16;;;;;;;15.90;11.05;;;;;;;9.94;59.96;100480.34;5364291;26;20007;-68
2024/05/05 05:52:42;;;;;;;20.55;11.57;;;;;;;10.07;60.48;100486.72;5323688;26;20011;-69
2024/05/05 05:55:08;;;;;;;19.48;11.95;;;;;;;9.94;60.42;100485.56;5361555;26;20011;-70
2024/05/05 05:57:34;;;;;;;18.48;11.10;;;;;;;9.81;60.30;100487.84;5351717;26;20018;-67
2024/05/05 05:59:59;;;;;;;14.82;10.32;;;;;;;10.00;60.49;100487.94;5355514;26;20015;-68
2024/05/05 06:02:25;;;;;;;18.08;11.98;;;;;;;10.51;60.15;100486.50;5361275;26;20870;-68
2024/05/05 06:04:51;;;;;;;15.35;11.60;;;;;;;10.64;59.23;100494.63;5352508;26;21372;-68
2024/05/05 06:07:16;;;;;;;15.40;10.68;;;;;;;10.62;58.31;100494.69;5329857;26;20000;-67
2024/05/05 06:09:42;;;;;;;20.67;9.88;;;;;;;11.03;58.04;100493.69;5351538;26;20007;-67
2024/05/05 06:12:08;;;;;;;15.55;10.75;;;;;;;11.14;57.57;100501.03;5359379;26;20015;-70
2024/05/05 06:14:33;;;;;;;13.50;9.65;;;;;;;11.19;57.59;100499.03;5336098;26;20015;-70
2024/05/05 06:16:59;;;;;;;13.77;9.35;;;;;;;11.02;57.47;100500.69;5362277;26;20160;-68
2024/05/05 06:19:24;;;;;;;13.30;8.68;;;;;;;10.93;57.22;100497.66;5355662;26;20018;-70
2024/05/05 06:21:50;;;;;;;12.77;9.20;;;;;;;11.03;57.74;100504.16;5341893;26;19999;-70
2024/05/05 06:24:16;;;;;;;14.02;9.05;;;;;;;10.87;57.42;100505.81;5344366;26;20019;-67
2024/05/05 06:26:41;;;;;;;13.65;9.40;;;;;;;10.87;57.51;100509.28;5350057;26;20007;-68
2024/05/05 06:29:07;;;;;;;12.18;8.63;;;;;;;10.75;58.27;100509.78;5360137;26;20524;-69
2024/05/05 06:31:32;;;;;;;12.05;8.43;;;;;;;10.65;58.17;100509.38;5349921;26;20357;-69
2024/05/05 06:33:58;;;;;;;13.57;8.93;;;;;;;10.69;57.95;100510.94;5358501;26;20011;-70
2024/05/05 06:36:23;;;;;;;14.02;9.52;;;;;;;10.88;58.28;100508.34;5361240;26;20710;-70
2024/05/05 06:38:49;;;;;;;11.05;8.60;;;;;;;10.92;58.08;100512.50;5347139;26;20173;-69
2024/05/05 06:41:15;;;;;;;11.90;9.00;;;;;;;11.19;57.60;100510.34;5361304;26;20491;-66
2024/05/05 06:43:41;;;;;;;14.80;8.90;;;;;;;11.20;57.43;100500.75;5351232;26;20007;-66
2024/05/05 06:46:07;;;;;;;11.73;8.32;;;;;;;10.92;56.99;100507.28;5356669;26;20003;-64
2024/05/05 06:48:32;;;;;;;11.68;7.75;;;;;;;11.04;57.27;100506.72;5353060;26;20004;-66
2024/05/05 06:50:58;;;;;;;10.65;8.55;;;;;;;11.51;57.02;100499.22;5356858;26;20091;-67
2024/05/05 06:53:24;;;;;;;11.00;8.23;;;;;;;11.80;57.06;100495.19;5354388;26;20019;-64
2024/05/05 06:55:50;;;;;;;10.95;7.80;;;;;;;12.70;54.95;100493.00;5355539;26;20000;-66
2024/05/05 06:58:16;;;;;;;11.48;8.82;;;;;;;15.00;49.80;100488.13;5358433;26;20008;-66
2024/05/05 07:00:42;;;;;;;7.70;6.47;;;;;;;16.29;44.98;100487.38;5321448;26;20022;-65
2024/05/05 07:03:11;;;;;;;8.02;6.22;;;;;;;17.44;44.14;100480.81;5358894;26;20691;-66
2024/05/05 07:05:36;;;;;;;7.75;6.03;;;;;;;16.73;42.10;100483.38;5354350;26;20107;-64
2024/05/05 07:08:02;;;;;;;7.45;5.30;;;;;;;16.06;43.58;100485.50;5364622;26;20077;-66
2024/05/05 07:10:28;;;;;;;6.63;5.03;;;;;;;15.16;44.12;100482.69;5355500;26;21173;-65
2024/05/05 07:12:53;;;;;;;7.13;4.57;;;;;;;14.51;47.09;100486.81;5354766;26;20020;-64
2024/05/05 07:15:18;;;;;;;6.05;4.75;;;;;;;13.70;47.70;100483.88;5356403;26;21089;-70
2024/05/05 07:17:44;;;;;;;4.38;4.00;;;;;;;13.33;48.80;100483.38;5351775;26;20453;-66
2024/05/05 07:20:10;;;;;;;7.85;4.90;;;;;;;12.95;50.31;100486.41;5352363;26;20023;-65
2024/05/05 07:22:35;;;;;;;8.68;4.72;;;;;;;12.75;50.79;100484.06;5359949;26;20007;-65
2024/05/05 07:25:01;;;;;;;7.85;4.55;;;;;;;12.41;51.18;100481.47;5354424;26;20007;-65
2024/05/05 07:27:27;;;;;;;4.97;4.38;;;;;;;12.20;51.50;100491.34;5356437;26;20022;-65
2024/05/05 07:29:52;;;;;;;5.10;4.22;;;;;;;11.61;53.04;100487.38;5358562;26;20112;-67
2024/05/05 07:32:18;;;;;;;5.97;4.40;;;;;;;11.59;54.13;100492.66;5344443;26;20012;-66
2024/05/05 07:34:43;;;;;;;7.30;4.93;;;;;;;11.93;53.77;100495.38;5362860;26;20022;-66
2024/05/05 07:37:09;;;;;;;6.00;4.68;;;;;;;12.25;52.75;100485.84;5340709;26;20345;-68
2024/05/05 07:39:34;;;;;;;6.53;4.15;;;;;;;12.01;52.72;100485.34;5335253;26;20003;-67
2024/05/05 07:42:00;;;;;;;6.10;3.92;;;;;;;12.00;51.60;100488.88;5359565;26;20020;-66
2024/05/05 07:44:29;;;;;;;5.85;2.92;;;;;;;11.62;53.87;100495.16;5368075;26;20007;-67
2024/05/05 07:46:58;;;;;;;3.40;3.00;;;;;;;11.38;54.58;100497.22;5359465;26;20007;-66
2024/05/05 07:49:23;;;;;;;4.53;2.72;;;;;;;11.26;54.99;100492.56;5368166;26;20015;-66
2024/05/05 07:51:51;;;;;;;4.15;2.83;;;;;;;11.61;54.78;100489.97;5360790;26;20044;-69
2024/05/05 07:54:17;;;;;;;4.00;2.95;;;;;;;11.44;55.38;100490.81;5369342;26;20106;-65
2024/05/05 07:56:42;;;;;;;4.82;2.85;;;;;;;11.54;54.72;100493.84;5364455;26;20021;-66
2024/05/05 07:59:08;;;;;;;5.18;3.63;;;;;;;11.56;55.40;100492.00;5368650;26;20007;-65
2024/05/05 08:01:34;;;;;;;5.47;3.60;;;;;;;11.46;54.26;100492.47;5364556;26;20005;-65
2024/05/05 08:04:00;;;;;;;6.07;3.58;;;;;;;11.29;54.82;100494.22;5363641;26;21006;-66
2024/05/05 08:06:25;;;;;;;5.93;3.95;;;;;;;10.98;56.14;100491.31;5371947;26;20008;-66
2024/05/05 08:08:51;;;;;;;7.22;3.95;;;;;;;11.13;55.51;100494.97;5357733;26;20007;-67
2024/05/05 08:11:17;;;;;;;6.25;3.17;;;;;;;11.02;55.97;100498.09;5368256;26;20012;-68
2024/05/05 08:13:42;;;;;;;4.97;2.50;;;;;;;10.62;55.63;100497.31;5362934;26;20052;-65
2024/05/05 08:16:08;;;;;;;8.35;2.85;;;;;;;10.61;55.46;100498.22;5371671;26;20004;-64
2024/05/05 08:18:34;;;;;;;4.13;1.80;;;;;;;10.93;55.19;100490.69;5364418;26;20162;-64
2024/05/05 08:20:59;;;;;;;4.72;1.95;;;;;;;11.02;55.22;100498.09;5370626;26;20022;-67
2024/05/05 08:23:25;;;;;;;4.07;1.63;;;;;;;11.04;54.79;100501.47;5373387;26;20472;-67
2024/05/05 08:25:50;;;;;;;8.23;2.05;;;;;;;11.20;54.39;100495.50;5361720;26;19999;-64
2024/05/05 08:28:16;;;;;;;2.53;1.27;;;;;;;11.43;54.47;100500.44;5342579;26;20000;-67
2024/05/05 08:30:42;;;;;;;1.63;1.27;;;;;;;13.02;51.22;100489.53;5347781;26;20003;-65
2024/05/05 08:33:07;;;;;;;1.27;0.88;;;;;;;13.46;48.96;100492.22;5370432;26;20026;-66
2024/05/05 08:35:33;;;;;;;3.00;1.45;;;;;;;13.22;49.33;100488.41;5365041;26;20092;-66
2024/05/05 08:37:58;;;;;;;1.80;0.93;;;;;;;13.18;48.96;100485.09;5361394;26;19999;-67
2024/05/05 08:40:24;;;;;;;1.52;0.60;;;;;;;13.19;48.28;100483.34;5360249;26;20007;-67
2024/05/05 08:42:50;;;;;;;3.00;0.50;;;;;;;14.18;47.22;100484.47;5354355;26;20004;-68
2024/05/05 08:45:17;;;;;;;1.17;0.43;;;;;;;16.29;43.44;100492.66;5368916;26;20032;-65
2024/05/05 08:47:44;;;;;;;1.15;0.30;;;;;;;17.77;38.94;100472.16;5353344;26;20693;-65
2024/05/05 08:50:11;;;;;;;1.10;0.20;;;;;;;18.21;37.47;100475.00;5364186;26;20667;-66
2024/05/05 08:52:38;;;;;;;0.63;0.20;;;;;;;16.04;40.67;100484.75;5358255;26;20494;-66
2024/05/05 08:55:07;;;;;;;1.75;0.30;;;;;;;13.88;45.32;100480.16;5360503;26;21629;-66
2024/05/05 08:57:38;;;;;;;2.67;0.40;;;;;;;13.29;46.73;100490.59;5329542;26;20011;-67
2024/05/05 09:00:04;;;;;;;2.83;1.33;;;;;;;12.40;47.98;100489.41;5358796;26;21532;-67
2024/05/05 09:02:31;;;;;;;1.55;0.60;;;;;;;12.74;49.07;100487.63;5358938;26;20004;-66
2024/05/05 09:04:57;;;;;;;1.98;0.80;;;;;;;12.47;49.62;100483.75;5356795;26;20007;-66
2024/05/05 09:07:25;;;;;;;3.60;1.17;;;;;;;12.95;49.31;100477.69;5362020;26;19992;-66
2024/05/05 09:09:51;;;;;;;2.53;0.80;;;;;;;12.06;50.29;100480.72;5362602;26;20019;-67
2024/05/05 09:12:16;;;;;;;3.92;0.93;;;;;;;12.45;50.34;100482.16;5364279;26;20523;-67
2024/05/05 09:14:44;;;;;;;1.30;0.70;;;;;;;12.22;50.22;100484.25;5359323;26;19999;-66
2024/05/05 09:17:11;;;;;;;2.85;0.60;;;;;;;12.17;50.82;100493.25;5335787;26;20011;-64
2024/05/05 09:19:47;;;;;;;2.85;0.40;;;;;;;11.21;51.68;100497.19;5362024;26;20010;-66
2024/05/05 09:22:14;;;;;;;0.82;0.30;;;;;;;10.80;52.30;100494.75;5349851;26;20003;-67
2024/05/05 09:24:40;;;;;;;0.98;0.30;;;;;;;10.73;53.55;100496.81;5356925;26;20007;-66
2024/05/05 09:27:05;;;;;;;1.70;0.30;;;;;;;11.41;52.15;100496.22;5357658;26;20371;-64
2024/05/05 09:29:31;;;;;;;0.77;0.30;;;;;;;11.80;51.52;100501.25;5363066;26;20003;-65
2024/05/05 09:31:57;;;;;;;0.80;0.35;;;;;;;11.50;51.19;100503.59;5358003;26;20036;-67
2024/05/05 09:34:26;;;;;;;0.80;0.30;;;;;;;11.11;51.84;100509.03;5364701;26;20007;-66
2024/05/05 09:36:53;;;;;;;1.45;0.30;;;;;;;11.11;51.66;100506.41;5357357;26;20617;-64
2024/05/05 09:39:20;;;;;;;0.80;0.30;;;;;;;11.06;52.05;100504.00;5380297;26;20081;-66
2024/05/05 09:41:47;;;;;;;0.63;0.30;;;;;;;10.87;51.15;100506.66;5359112;26;19999;-66
2024/05/05 09:44:12;;;;;;;2.17;0.28;;;;;;;10.67;52.13;100506.72;5324072;26;20018;-66
2024/05/05 09:46:43;;;;;;;0.90;0.20;;;;;;;10.40;52.04;100513.13;5366482;26;20011;-66
2024/05/05 09:49:09;;;;;;;1.13;0.38;;;;;;;10.74;52.33;100513.34;5339152;26;20461;-64
2024/05/05 09:51:58;;;;;;;1.33;0.38;;;;;;;11.03;52.79;100509.38;5334391;26;20011;-64
2024/05/05 09:54:30;;;;;;;2.97;0.60;;;;;;;11.86;51.07;100505.31;5364112;26;20022;-64
2024/05/05 09:57:10;;;;;;;2.92;0.50;;;;;;;11.96;51.34;100509.16;5329989;26;19996;-63
2024/05/05 09:59:37;;;;;;;2.72;0.65;;;;;;;12.90;48.94;100510.28;5345821;26;20000;-64
2024/05/05 10:02:05;;;;;;;5.07;0.50;;;;;;;13.15;48.04;100508.06;5345227;26;20030;-66
2024/05/05 10:04:31;;;;;;;2.97;0.30;;;;;;;13.12;48.03;100503.81;5357362;26;20022;-63
2024/05/05 10:06:58;;;;;;;2.05;0.40;;;;;;;11.90;48.77;100506.03;5365736;26;20011;-65
2024/05/05 10:09:32;;;;;;;2.78;0.20;;;;;;;11.88;50.08;100506.09;5354860;26;20049;-64
2024/05/05 10:12:10;;;;;;;1.48;0.20;;;;;;;10.99;50.76;100505.22;5360801;26;20349;-63
2024/05/05 10:14:36;;;;;;;0.93;0.10;;;;;;;11.85;49.41;100494.00;5364446;26;20010;-64
2024/05/05 10:17:02;;;;;;;3.65;0.20;;;;;;;12.15;49.07;100501.19;5346505;26;23582;-63
2024/05/05 10:19:27;;;;;;;2.85;0.20;;;;;;;12.76;46.47;100491.84;5368295;26;20004;-63
2024/05/05 10:22:09;;;;;;;0.95;0.10;;;;;;;11.97;47.22;100505.63;5338725;26;20606;-65
2024/05/05 10:24:36;;;;;;;0.98;0.10;;;;;;;12.04;46.16;100495.66;5363436;26;20035;-64
2024/05/05 10:27:03;;;;;;;0.63;0.10;;;;;;;12.05;46.58;100497.38;5357409;26;20096;-66
2024/05/05 10:29:29;;;;;;;1.45;0.10;;;;;;;12.46;47.09;100495.16;5368502;26;20018;-63
2024/05/05 10:31:56;;;;;;;0.50;0.10;;;;;;;12.45;45.35;100484.78;5355320;26;20026;-66
2024/05/05 10:34:24;;;;;;;0.43;0.10;;;;;;;12.67;46.06;100490.53;5364588;26;20040;-64
2024/05/05 10:36:49;;;;;;;1.10;0.10;;;;;;;13.09;45.52;100491.72;5335551;26;20047;-64
2024/05/05 10:39:16;;;;;;;1.20;0.10;;;;;;;14.32;44.84;100489.75;5362906;26;20008;-63
2024/05/05 10:41:42;;;;;;;0.40;0.10;;;;;;;14.02;43.99;100486.34;5366466;26;20013;-65
2024/05/05 10:44:07;;;;;;;1.33;0.10;;;;;;;14.79;42.32;100482.47;5358382;26;19999;-65
2024/05/05 10:46:33;;;;;;;0.30;0.10;;;;;;;15.29;42.85;100483.59;5366678;26;20008;-63
2024/05/05 10:48:59;;;;;;;0.43;0.20;;;;;;;14.83;41.53;100486.56;5348550;26;20043;-64
2024/05/05 10:51:28;;;;;;;0.40;0.20;;;;;;;13.59;43.51;100495.03;5368496;26;20019;-64
2024/05/05 10:53:57;;;;;;;0.35;0.10;;;;;;;12.27;46.30;100491.84;5353351;26;19999;-64
2024/05/05 10:56:27;;;;;;;0.80;0.10;;;;;;;12.17;46.35;100491.47;5365730;26;20634;-64
2024/05/05 10:58:53;;;;;;;2.17;0.20;;;;;;;11.64;47.92;100498.53;5350787;26;20008;-65
2024/05/05 11:01:18;;;;;;;1.85;0.10;;;;;;;12.34;47.40;100495.00;5369875;26;20014;-63
2024/05/05 11:03:45;;;;;;;0.50;0.10;;;;;;;11.79;48.87;100490.84;5360821;26;20038;-64
2024/05/05 11:06:12;;;;;;;1.60;0.20;;;;;;;11.58;49.35;100487.53;5362816;26;20010;-64
2024/05/05 11:08:43;;;;;;;0.57;0.20;;;;;;;12.07;50.79;100485.03;5377909;26;20051;-63
2024/05/05 11:11:08;;;;;;;0.77;0.20;;;;;;;13.54;46.99;100481.28;5358955;26;20065;-63
2024/05/05 11:13:35;;;;;;;1.33;0.10;;;;;;;15.09;41.46;100484.88;5365315;26;20014;-64